Startpagina
METAR-TAF:

METAR-TAF

Vliegvelden :

Pian Rosa, Italië

breedte: 45-56N, lengte: 007-42E, hoogte: 3480 m

Actueel weer

Dit bericht is 1 uur en het 0 minuten geleden gemaakt, om 01:55 UTC
Wind 19 kt uit het zuiden
Temperatuur -9°C
Vochtigheid 100%
Druk 1012 hPa
Zicht: 0100 m
lichte sneeuw, onderkoelde mist

METAR: LIMH 120155Z 19019KT 0100 -SN FZFG VV/// M09/M09 Q1012 RMK MON INVIS VAL INVIS VIS MIN 0100

Tijdstip: 04:55 (02:55 UTC)


TAF: ontbreekt

Waarnemingen en weersverwachtingen van meer dan 4000 vliegvelden (METAR en TAF).

De beschikbare stations zijn de gele en rode punten op de kaart.

Ga met uw muis naar het station om de naam te zien.

Klik dan om waarnemingen en weersverwachtingen te zien.

kaart wijzigen: klik op de groene knoppen met een zwart kruis om in te zoomen, op de groene knop met een streepje om uit te zoomen of op de groene pijlen voor aangrenzende kaarten.


METAR-TAF: